Time;durP1;ratioP1;P1;durP2;ratioP2;P2;SDS_P1;SDS_P2;PMS_P1;PMS_P2;Temp;Humidity;BMP_temperature;BMP_pressure;BME280_temperature;BME280_humidity;BME280_pressure;Samples;Min_cycle;Max_cycle;Signal;HPM_P1;HPM_P2
2022/05/30 00:00:20;;;;;;;2.92;0.20;;;15.30;55.30;;;;;;5089068;28;20037;-67
2022/05/30 00:02:47;;;;;;;0.98;0.10;;;15.30;55.30;;;;;;5088544;28;20044;-68
2022/05/30 00:05:13;;;;;;;0.35;0.10;;;15.40;55.30;;;;;;5089096;28;20040;-67
2022/05/30 00:07:39;;;;;;;1.67;0.30;;;15.50;55.20;;;;;;5087671;28;20040;-67
2022/05/30 00:10:08;;;;;;;1.20;0.10;;;15.60;54.90;;;;;;5087769;28;20036;-67
2022/05/30 00:12:34;;;;;;;1.52;0.30;;;15.80;54.60;;;;;;5087717;28;20044;-67
2022/05/30 00:15:00;;;;;;;0.77;0.10;;;16.10;54.20;;;;;;5088996;28;20043;-67
2022/05/30 00:17:25;;;;;;;0.90;0.10;;;16.30;53.80;;;;;;5087597;28;20048;-67
2022/05/30 00:19:51;;;;;;;0.80;0.13;;;16.60;53.30;;;;;;5087639;28;20127;-67
2022/05/30 00:22:19;;;;;;;1.65;0.10;;;16.80;52.90;;;;;;5088711;28;20036;-67
2022/05/30 00:24:45;;;;;;;0.60;0.20;;;17.00;52.50;;;;;;5089045;28;20475;-67
2022/05/30 00:27:11;;;;;;;0.50;0.20;;;17.20;52.10;;;;;;5087428;28;20036;-65
2022/05/30 00:29:38;;;;;;;1.02;0.15;;;17.30;51.80;;;;;;5088694;28;20541;-67
2022/05/30 00:32:05;;;;;;;0.75;0.10;;;17.40;51.60;;;;;;5087344;28;20036;-67
2022/05/30 00:34:32;;;;;;;0.85;0.10;;;17.40;51.40;;;;;;5087538;28;20056;-67
2022/05/30 00:36:57;;;;;;;1.38;0.10;;;17.50;51.30;;;;;;5087226;28;20101;-68
2022/05/30 00:39:23;;;;;;;1.65;0.25;;;17.50;51.20;;;;;;5088497;28;20036;-67
2022/05/30 00:41:52;;;;;;;1.77;0.10;;;17.50;51.10;;;;;;5087504;28;20037;-69
2022/05/30 00:44:21;;;;;;;0.80;0.10;;;17.50;51.00;;;;;;5088404;28;20115;-67
2022/05/30 00:46:47;;;;;;;2.13;0.20;;;17.40;51.00;;;;;;5086759;28;20128;-67
2022/05/30 00:49:13;;;;;;;0.63;0.10;;;17.40;51.00;;;;;;5087036;28;20043;-69
2022/05/30 00:51:49;;;;;;;1.13;0.20;;;17.40;51.10;;;;;;5086999;28;20064;-67
2022/05/30 00:54:20;;;;;;;0.70;0.17;;;17.30;50.90;;;;;;5087206;28;20391;-67
2022/05/30 00:56:49;;;;;;;0.85;0.20;;;17.30;51.10;;;;;;5087147;28;20040;-67
2022/05/30 00:59:15;;;;;;;0.65;0.15;;;17.20;51.10;;;;;;5074284;28;20037;-69
2022/05/30 01:01:41;;;;;;;1.70;0.30;;;17.20;51.30;;;;;;5074663;28;20437;-68
2022/05/30 01:06:57;;;;;;;;;;;17.10;51.40;;;;;;5074723;28;20048;-67
2022/05/30 01:09:26;;;;;;;1.05;0.10;;;17.00;51.30;;;;;;5073393;28;19939;-70
2022/05/30 01:12:05;;;;;;;1.55;0.28;;;16.90;51.60;;;;;;5074515;28;20074;-67
2022/05/30 01:14:35;;;;;;;1.75;0.20;;;16.90;51.60;;;;;;5073070;28;20047;-67
2022/05/30 01:17:05;;;;;;;2.58;0.47;;;16.80;51.70;;;;;;5073043;28;20048;-67
2022/05/30 01:22:48;;;;;;;1.70;0.30;;;16.80;51.80;;;;;;5109986;27;20419;-65
2022/05/30 01:28:36;;;;;;;1.17;0.20;;;16.60;51.90;;;;;;5130271;27;20797;-67
2022/05/30 01:31:01;;;;;;;1.48;0.30;;;16.50;52.10;;;;;;5146296;27;20139;-69
2022/05/30 01:33:27;;;;;;;1.08;0.20;;;16.50;52.30;;;;;;5128984;28;20525;-67
2022/05/30 01:35:53;;;;;;;2.95;0.20;;;16.40;52.40;;;;;;5129075;28;20071;-67
2022/05/30 01:38:20;;;;;;;1.15;0.10;;;16.40;52.50;;;;;;5128869;28;20043;-69
2022/05/30 01:40:46;;;;;;;2.67;0.20;;;16.40;52.60;;;;;;5129066;28;20036;-67
2022/05/30 01:43:12;;;;;;;0.90;0.10;;;16.30;52.60;;;;;;5128679;28;20096;-67
2022/05/30 01:45:38;;;;;;;0.95;0.10;;;16.30;52.70;;;;;;5128811;28;20118;-67
2022/05/30 01:48:03;;;;;;;2.13;0.47;;;16.30;52.80;;;;;;5128765;28;20296;-65
2022/05/30 01:50:29;;;;;;;1.08;0.20;;;16.20;52.80;;;;;;5128748;28;20031;-67
2022/05/30 01:52:58;;;;;;;2.38;0.40;;;16.30;52.90;;;;;;5128589;28;20082;-67
2022/05/30 01:55:23;;;;;;;0.90;0.20;;;16.20;52.90;;;;;;5128728;28;20035;-64
2022/05/30 01:57:49;;;;;;;2.63;0.30;;;16.20;52.90;;;;;;5129720;28;20053;-67
2022/05/30 02:00:15;;;;;;;0.77;0.20;;;16.20;52.90;;;;;;5128763;28;20039;-67
2022/05/30 02:02:41;;;;;;;1.05;0.20;;;16.20;52.80;;;;;;5111322;28;20119;-67
2022/05/30 02:05:07;;;;;;;1.45;0.20;;;16.20;52.80;;;;;;5128489;28;20126;-67
2022/05/30 02:07:33;;;;;;;0.60;0.10;;;16.20;52.80;;;;;;5128122;28;20048;-67
2022/05/30 02:09:58;;;;;;;2.20;0.20;;;16.20;52.90;;;;;;5128340;28;20439;-69
2022/05/30 02:12:27;;;;;;;0.90;0.10;;;16.20;52.80;;;;;;5129600;28;20065;-69
2022/05/30 02:14:53;;;;;;;2.05;0.25;;;16.20;52.90;;;;;;5129381;28;20035;-67
2022/05/30 02:17:18;;;;;;;1.75;0.30;;;16.20;52.80;;;;;;5129311;28;20083;-67
2022/05/30 02:19:45;;;;;;;1.02;0.35;;;16.20;52.80;;;;;;5128112;28;20108;-67
2022/05/30 02:22:14;;;;;;;0.85;0.10;;;16.10;52.80;;;;;;5129221;27;20165;-67
2022/05/30 02:24:40;;;;;;;1.08;0.30;;;16.10;52.80;;;;;;5129325;27;20039;-67
2022/05/30 02:27:08;;;;;;;1.42;0.20;;;16.10;53.60;;;;;;5127543;28;20051;-66
2022/05/30 02:29:34;;;;;;;0.82;0.20;;;16.10;53.70;;;;;;5129214;27;20074;-67
2022/05/30 02:32:03;;;;;;;1.65;0.20;;;16.00;52.90;;;;;;5127768;28;20451;-69
2022/05/30 02:37:17;;;;;;;1.35;0.20;;;16.00;53.00;;;;;;5125298;27;20040;-67
2022/05/30 02:39:42;;;;;;;1.73;0.10;;;16.00;53.10;;;;;;5113924;28;20395;-67
2022/05/30 02:42:08;;;;;;;2.08;0.20;;;15.90;53.10;;;;;;5115264;28;20043;-67
2022/05/30 02:44:35;;;;;;;1.00;0.20;;;15.90;53.20;;;;;;5113851;28;20039;-68
2022/05/30 02:47:00;;;;;;;1.30;0.20;;;15.90;53.20;;;;;;5114999;28;20043;-67
2022/05/30 02:49:28;;;;;;;2.15;0.20;;;15.90;53.30;;;;;;5113768;28;20118;-67
2022/05/30 02:51:54;;;;;;;1.60;0.10;;;15.90;53.40;;;;;;5114112;28;20383;-67
2022/05/30 02:54:20;;;;;;;1.98;0.20;;;15.90;53.40;;;;;;5114935;28;20070;-67
2022/05/30 02:56:49;;;;;;;1.42;0.25;;;15.80;53.50;;;;;;5114965;28;20126;-69
2022/05/30 02:59:15;;;;;;;1.75;0.20;;;15.80;53.50;;;;;;5114921;28;20042;-67
2022/05/30 03:01:40;;;;;;;0.75;0.20;;;15.80;53.50;;;;;;5114890;28;20039;-67
2022/05/30 03:04:09;;;;;;;1.10;0.50;;;15.80;53.60;;;;;;5113689;28;20028;-69
2022/05/30 03:06:35;;;;;;;2.38;0.22;;;15.70;53.50;;;;;;5113491;28;20483;-67
2022/05/30 03:09:01;;;;;;;2.15;0.20;;;15.70;53.50;;;;;;5114637;28;20082;-67
2022/05/30 03:11:27;;;;;;;1.38;0.20;;;15.70;53.60;;;;;;5114678;28;20044;-67
2022/05/30 03:13:53;;;;;;;1.10;0.30;;;15.70;53.60;;;;;;5114580;28;20116;-67
2022/05/30 03:16:19;;;;;;;1.73;0.30;;;15.70;53.60;;;;;;5114510;28;20035;-67
2022/05/30 03:18:45;;;;;;;1.05;0.20;;;15.70;53.50;;;;;;5114480;28;20444;-67
2022/05/30 03:21:11;;;;;;;1.55;0.20;;;15.80;53.60;;;;;;5113101;28;20509;-67
2022/05/30 03:23:38;;;;;;;1.00;0.10;;;15.70;53.50;;;;;;5114405;28;20082;-67
2022/05/30 03:26:04;;;;;;;1.42;0.20;;;15.80;53.50;;;;;;5112818;28;20040;-67
2022/05/30 03:28:31;;;;;;;1.85;0.32;;;15.80;53.50;;;;;;5114206;28;20387;-64
2022/05/30 03:30:57;;;;;;;1.48;0.30;;;15.70;53.50;;;;;;5114290;28;20422;-64
2022/05/30 03:33:23;;;;;;;1.40;0.20;;;15.70;53.50;;;;;;5114213;28;20433;-67
2022/05/30 03:35:53;;;;;;;1.63;0.20;;;15.70;53.50;;;;;;5113073;28;20039;-67
2022/05/30 03:38:19;;;;;;;1.95;0.20;;;15.70;53.40;;;;;;5114146;28;20073;-67
2022/05/30 03:40:44;;;;;;;1.35;0.20;;;15.70;53.40;;;;;;5114184;28;20128;-67
2022/05/30 03:43:11;;;;;;;0.90;0.10;;;15.70;53.40;;;;;;5114028;28;20031;-67
2022/05/30 03:45:40;;;;;;;2.30;0.55;;;15.70;53.50;;;;;;5112575;28;20075;-70
2022/05/30 03:48:08;;;;;;;0.98;0.10;;;15.70;53.50;;;;;;5112889;28;20039;-67
2022/05/30 03:50:35;;;;;;;1.20;0.30;;;15.70;53.50;;;;;;5113137;28;20495;-69
2022/05/30 03:53:04;;;;;;;1.00;0.20;;;15.60;53.40;;;;;;5112579;28;20100;-67
2022/05/30 03:55:37;;;;;;;1.13;0.20;;;15.60;53.50;;;;;;5113901;27;20467;-67
2022/05/30 03:58:04;;;;;;;2.40;0.30;;;15.60;53.50;;;;;;5112536;28;20079;-66
2022/05/30 04:00:32;;;;;;;1.13;0.40;;;15.60;53.50;;;;;;5113648;28;20498;-67
2022/05/30 04:02:58;;;;;;;1.27;0.20;;;15.60;53.50;;;;;;5113708;28;20048;-67
2022/05/30 04:05:24;;;;;;;2.03;0.20;;;15.60;53.60;;;;;;5113518;28;20045;-68
2022/05/30 04:07:50;;;;;;;2.10;0.20;;;15.50;53.60;;;;;;5112202;28;20039;-67
2022/05/30 04:10:16;;;;;;;1.88;0.10;;;15.60;53.60;;;;;;5113445;28;20431;-67
2022/05/30 04:12:42;;;;;;;0.55;0.17;;;15.50;53.60;;;;;;5113592;28;20038;-68
2022/05/30 04:15:11;;;;;;;1.20;0.20;;;15.50;53.60;;;;;;5112321;28;20027;-67
2022/05/30 04:17:40;;;;;;;1.77;0.20;;;15.50;53.60;;;;;;5112280;28;20444;-69
2022/05/30 04:20:06;;;;;;;1.25;0.20;;;15.50;53.60;;;;;;5112191;28;20047;-67
2022/05/30 04:22:33;;;;;;;1.13;0.20;;;15.50;53.60;;;;;;5112627;28;20055;-69
2022/05/30 04:24:58;;;;;;;1.40;0.50;;;15.50;53.60;;;;;;5112349;28;20040;-67
2022/05/30 04:27:24;;;;;;;0.77;0.25;;;15.50;53.70;;;;;;5111546;28;20380;-67
2022/05/30 04:29:50;;;;;;;1.63;0.30;;;15.50;53.70;;;;;;5113230;28;20042;-67
2022/05/30 04:32:16;;;;;;;1.17;0.35;;;15.50;53.70;;;;;;5111941;28;20103;-67
2022/05/30 04:34:42;;;;;;;2.20;0.20;;;15.50;53.70;;;;;;5112035;28;20115;-66
2022/05/30 04:37:08;;;;;;;0.57;0.20;;;15.50;53.60;;;;;;5111659;28;20040;-68
2022/05/30 04:39:35;;;;;;;1.23;0.20;;;15.60;53.70;;;;;;5111936;28;20088;-69
2022/05/30 04:42:01;;;;;;;1.15;0.10;;;15.60;53.70;;;;;;5111655;28;20043;-67
2022/05/30 04:44:27;;;;;;;1.23;0.20;;;15.60;53.60;;;;;;5112871;28;20138;-67
2022/05/30 04:46:54;;;;;;;1.23;0.20;;;15.60;53.60;;;;;;5111314;28;20546;-69
2022/05/30 04:49:21;;;;;;;1.73;1.30;;;15.60;53.60;;;;;;5113085;28;20061;-67
2022/05/30 04:51:47;;;;;;;1.70;0.20;;;15.60;53.60;;;;;;5111487;28;20039;-69
2022/05/30 04:54:12;;;;;;;1.05;0.10;;;15.60;53.60;;;;;;5112873;28;20024;-67
2022/05/30 04:56:38;;;;;;;0.77;0.20;;;15.60;53.60;;;;;;5111637;28;20453;-67
2022/05/30 04:59:04;;;;;;;1.48;0.20;;;15.60;53.70;;;;;;5112744;28;20283;-67
2022/05/30 05:01:30;;;;;;;1.25;0.20;;;15.60;53.60;;;;;;5111030;28;20050;-67
2022/05/30 05:03:56;;;;;;;2.47;0.10;;;15.60;53.60;;;;;;5111358;28;20051;-65
2022/05/30 05:06:23;;;;;;;0.65;0.10;;;15.60;53.60;;;;;;5111407;28;20047;-67
2022/05/30 05:11:33;;;;;;;0.45;0.10;;;15.60;53.70;;;;;;5130303;27;20445;-68
2022/05/30 05:13:59;;;;;;;1.13;0.28;;;15.60;53.70;;;;;;5130254;27;20101;-67
2022/05/30 05:16:30;;;;;;;0.50;0.10;;;15.60;53.70;;;;;;5129055;27;20047;-67
2022/05/30 05:18:56;;;;;;;1.38;0.28;;;15.60;53.70;;;;;;5128894;28;20043;-68
2022/05/30 05:21:29;;;;;;;0.82;0.10;;;15.60;53.70;;;;;;5129121;28;20062;-67
2022/05/30 05:23:57;;;;;;;0.90;0.17;;;15.50;53.70;;;;;;5129372;27;20483;-70
2022/05/30 05:26:22;;;;;;;0.77;0.10;;;15.60;53.80;;;;;;5128715;28;20042;-69
2022/05/30 05:28:49;;;;;;;2.55;0.20;;;15.60;55.80;;;;;;5129154;28;20035;-71
2022/05/30 05:34:07;;;;;;;0.90;0.15;;;15.80;57.20;;;;;;5130056;27;20402;-71
2022/05/30 05:36:38;;;;;;;1.80;0.10;;;15.80;57.30;;;;;;5129092;28;20047;-71
2022/05/30 05:39:06;;;;;;;;;;;15.90;57.30;;;;;;5130024;27;20395;-71
2022/05/30 05:41:35;;;;;;;1.73;0.20;;;15.90;57.90;;;;;;5128610;27;20278;-72
2022/05/30 05:44:02;;;;;;;0.60;0.10;;;16.00;57.60;;;;;;5142159;27;20043;-72
2022/05/30 05:46:30;;;;;;;0.95;0.10;;;16.00;57.50;;;;;;5129392;27;20092;-72
2022/05/30 05:48:57;;;;;;;1.08;0.10;;;16.10;57.50;;;;;;5127678;27;20099;-72
2022/05/30 05:51:23;;;;;;;0.70;0.10;;;16.20;57.50;;;;;;5127362;27;20467;-71
2022/05/30 05:53:50;;;;;;;0.60;0.10;;;16.20;57.50;;;;;;5128384;28;20035;-71
2022/05/30 05:56:18;;;;;;;1.38;0.40;;;16.20;57.30;;;;;;5128894;28;20095;-71
2022/05/30 05:58:44;;;;;;;1.10;0.10;;;16.30;57.40;;;;;;5127561;28;20099;-72
2022/05/30 06:01:13;;;;;;;1.30;0.10;;;16.30;57.20;;;;;;5129133;27;20110;-72
2022/05/30 06:03:39;;;;;;;1.67;0.22;;;16.40;57.20;;;;;;5127900;27;20116;-70
2022/05/30 06:06:05;;;;;;;1.42;0.10;;;16.40;57.00;;;;;;5122568;28;20035;-68
2022/05/30 06:08:34;;;;;;;1.92;0.15;;;16.40;56.80;;;;;;5127357;27;20044;-67
2022/05/30 06:11:16;;;;;;;1.42;0.15;;;16.40;56.70;;;;;;5125268;28;20050;-67
2022/05/30 06:13:47;;;;;;;1.45;0.25;;;16.50;56.60;;;;;;5125674;28;20043;-68
2022/05/30 06:18:59;;;;;;;2.22;0.10;;;16.50;56.20;;;;;;5085630;28;20389;-68
2022/05/30 06:21:28;;;;;;;1.93;0.23;;;16.50;56.10;;;;;;5083190;28;20155;-68
2022/05/30 06:23:54;;;;;;;1.50;0.47;;;16.60;56.20;;;;;;5067857;28;20503;-72
2022/05/30 06:26:21;;;;;;;3.53;0.35;;;16.60;56.10;;;;;;5073234;28;20045;-71
2022/05/30 06:28:47;;;;;;;2.28;0.10;;;16.70;56.10;;;;;;5075720;28;20139;-70
2022/05/30 06:33:58;;;;;;;1.80;0.15;;;16.70;56.10;;;;;;5104262;27;1170613;-71
2022/05/30 06:36:25;;;;;;;3.53;0.38;;;16.70;55.80;;;;;;5104826;27;20122;-72
2022/05/30 06:38:52;;;;;;;2.33;0.13;;;16.80;55.70;;;;;;5100223;27;20134;-70
2022/05/30 06:41:24;;;;;;;1.80;0.10;;;16.80;55.60;;;;;;5099671;27;20042;-70
2022/05/30 06:43:52;;;;;;;5.43;0.40;;;16.80;55.40;;;;;;5104533;27;20051;-69
2022/05/30 06:46:18;;;;;;;1.58;0.30;;;16.90;55.30;;;;;;5100169;27;20063;-71
2022/05/30 06:48:54;;;;;;;1.80;0.20;;;16.90;55.20;;;;;;5119583;27;20462;-71
2022/05/30 06:51:21;;;;;;;1.83;0.20;;;16.90;54.90;;;;;;5097554;27;20086;-71
2022/05/30 06:53:47;;;;;;;0.60;0.10;;;17.00;54.70;;;;;;5114860;27;20092;-71
2022/05/30 06:56:16;;;;;;;2.65;0.20;;;17.00;54.50;;;;;;5121905;27;20034;-71
2022/05/30 06:58:44;;;;;;;1.83;0.10;;;17.00;54.40;;;;;;5116272;27;20101;-71
2022/05/30 07:01:10;;;;;;;5.38;0.30;;;17.10;54.30;;;;;;5114006;27;20923;-71
2022/05/30 07:03:37;;;;;;;6.15;0.20;;;17.10;54.10;;;;;;5100637;27;20122;-72
2022/05/30 07:06:07;;;;;;;1.65;0.13;;;17.10;54.10;;;;;;5119824;27;20043;-72
2022/05/30 07:08:33;;;;;;;2.28;0.10;;;17.10;54.00;;;;;;5095240;28;20416;-68
2022/05/30 07:10:58;;;;;;;1.85;0.10;;;17.20;53.90;;;;;;5108359;27;20093;-69
2022/05/30 07:13:24;;;;;;;0.82;0.10;;;17.20;53.70;;;;;;5087172;27;20127;-70
2022/05/30 07:15:50;;;;;;;0.88;0.10;;;17.20;53.50;;;;;;5095367;27;20039;-69
2022/05/30 07:18:18;;;;;;;1.33;0.20;;;17.20;53.30;;;;;;5098564;27;20510;-68
2022/05/30 07:20:43;;;;;;;1.25;0.10;;;17.20;53.20;;;;;;5112444;27;20040;-69
2022/05/30 07:23:10;;;;;;;2.08;0.10;;;17.20;53.00;;;;;;5106291;27;20448;-69
2022/05/30 07:25:38;;;;;;;1.30;0.10;;;17.30;53.30;;;;;;5118300;27;20387;-68
2022/05/30 07:28:05;;;;;;;1.70;0.10;;;17.30;53.50;;;;;;5103239;27;20047;-67
2022/05/30 07:30:34;;;;;;;2.05;0.20;;;17.30;53.30;;;;;;5104209;27;20360;-69
2022/05/30 07:33:02;;;;;;;0.73;0.10;;;17.30;53.20;;;;;;5101598;27;20498;-71
2022/05/30 07:35:27;;;;;;;0.75;0.10;;;17.40;53.00;;;;;;5112822;27;20130;-69
2022/05/30 07:37:53;;;;;;;0.68;0.10;;;17.40;52.90;;;;;;5109284;27;20119;-71
2022/05/30 07:40:19;;;;;;;1.90;0.10;;;17.40;52.90;;;;;;5093531;27;20167;-69
2022/05/30 07:42:45;;;;;;;0.50;0.10;;;17.30;52.90;;;;;;5109290;27;20046;-69
2022/05/30 07:45:11;;;;;;;4.20;0.30;;;17.30;52.90;;;;;;5095167;27;20624;-70
2022/05/30 07:47:37;;;;;;;2.58;0.13;;;17.30;53.20;;;;;;5079565;28;20066;-69
2022/05/30 07:50:05;;;;;;;1.52;0.00;;;17.30;53.10;;;;;;5078997;28;20419;-71
2022/05/30 07:52:32;;;;;;;1.88;0.15;;;17.30;53.10;;;;;;5088052;27;20043;-71
2022/05/30 07:54:59;;;;;;;2.25;0.25;;;17.30;53.10;;;;;;5086729;27;20047;-70
2022/05/30 07:58:04;;;;;;;1.02;0.38;;;17.30;53.20;;;;;;5089244;27;20054;-72
2022/05/30 08:00:12;;;;;;;2.20;0.10;;;17.30;53.30;;;;;;5095035;27;20039;-70
2022/05/30 08:02:39;;;;;;;3.85;0.20;;;17.20;53.20;;;;;;5095405;27;20052;-69
2022/05/30 08:05:07;;;;;;;1.35;0.20;;;17.30;53.80;;;;;;5079927;27;20051;-70
2022/05/30 08:07:32;;;;;;;2.78;0.32;;;17.30;53.70;;;;;;5088452;28;20706;-69
2022/05/30 08:09:58;;;;;;;1.20;0.10;;;17.30;53.50;;;;;;5100646;27;20040;-70
2022/05/30 08:12:24;;;;;;;1.17;0.43;;;17.30;53.40;;;;;;5101409;27;20044;-70
2022/05/30 08:14:49;;;;;;;5.05;0.20;;;17.40;53.30;;;;;;5083482;27;20035;-70
2022/05/30 08:17:15;;;;;;;5.40;0.52;;;17.40;53.10;;;;;;5098671;27;20039;-70
2022/05/30 08:19:41;;;;;;;6.85;0.10;;;17.40;53.00;;;;;;5097882;27;20470;-71
2022/05/30 08:22:09;;;;;;;1.92;0.45;;;17.50;53.30;;;;;;5079733;27;20046;-71
2022/05/30 08:24:37;;;;;;;2.20;0.10;;;17.50;53.10;;;;;;5084398;27;20118;-72
2022/05/30 08:27:03;;;;;;;1.77;0.15;;;17.60;52.90;;;;;;5078556;27;20048;-71
2022/05/30 08:29:30;;;;;;;1.08;0.10;;;17.60;52.70;;;;;;5084387;27;20043;-70
2022/05/30 08:31:56;;;;;;;0.65;0.10;;;17.60;52.50;;;;;;5086338;27;20059;-70
2022/05/30 08:34:22;;;;;;;4.20;0.10;;;17.70;52.40;;;;;;5085512;27;20079;-69
2022/05/30 08:36:48;;;;;;;1.23;0.10;;;17.80;52.20;;;;;;5082904;27;20040;-71
2022/05/30 08:42:00;;;;;;;3.13;0.13;;;17.90;51.90;;;;;;5096541;27;20078;-70
2022/05/30 08:44:29;;;;;;;0.88;0.10;;;17.90;51.80;;;;;;5092849;27;20382;-70
2022/05/30 08:49:46;;;;;;;4.03;0.47;;;17.80;52.50;;;;;;5062744;27;20392;-70
2022/05/30 08:52:39;;;;;;;3.38;0.20;;;17.70;51.90;;;;;;5060759;28;20392;-71
2022/05/30 09:01:06;;;;;;;1.88;0.10;;;17.60;51.90;;;;;;5105404;27;20398;-70
2022/05/30 09:04:07;;;;;;;2.30;0.55;;;17.50;51.90;;;;;;5105318;27;20190;-74
2022/05/30 09:06:34;;;;;;;0.30;0.13;;;17.50;51.80;;;;;;5089369;28;20055;-72
2022/05/30 09:09:03;;;;;;;1.20;0.20;;;17.60;51.90;;;;;;5095296;28;20039;-70
2022/05/30 09:14:46;;;;;;;0.52;0.32;;;17.50;51.70;;;;;;5127368;27;20476;-70
2022/05/30 09:17:18;;;;;;;1.80;0.10;;;17.60;51.70;;;;;;5106483;27;20382;-71
2022/05/30 09:19:44;;;;;;;1.33;0.10;;;17.60;51.50;;;;;;5111071;27;20043;-72
2022/05/30 09:22:12;;;;;;;1.20;0.05;;;17.60;51.40;;;;;;5106636;27;20457;-71
2022/05/30 09:24:41;;;;;;;0.35;0.00;;;17.60;51.20;;;;;;5110655;27;20065;-71
2022/05/30 09:27:08;;;;;;;1.45;0.13;;;17.70;51.10;;;;;;5110293;27;20066;-72
2022/05/30 09:29:42;;;;;;;0.43;0.00;;;17.80;50.90;;;;;;5112123;27;20487;-73
2022/05/30 09:35:20;;;;;;;0.70;0.20;;;17.90;50.70;;;;;;5053592;28;20513;-71
2022/05/30 09:37:45;;;;;;;0.85;0.10;;;18.20;51.10;;;;;;5055672;28;20044;-72
2022/05/30 09:40:12;;;;;;;0.57;0.00;;;18.20;50.00;;;;;;5054055;28;20672;-70
2022/05/30 09:42:49;;;;;;;0.30;0.10;;;18.20;49.90;;;;;;5052267;28;20048;-69
2022/05/30 09:45:26;;;;;;;0.85;0.20;;;18.20;49.80;;;;;;5066966;28;20087;-71
2022/05/30 09:48:13;;;;;;;1.17;0.00;;;18.20;49.80;;;;;;5064458;28;20041;-72
2022/05/30 09:50:44;;;;;;;1.30;0.10;;;18.20;49.70;;;;;;5050862;28;20381;-70
2022/05/30 09:53:33;;;;;;;0.73;0.10;;;18.20;49.60;;;;;;5055197;28;20052;-70
2022/05/30 09:55:59;;;;;;;0.82;0.00;;;18.20;49.60;;;;;;5051945;28;20037;-72
2022/05/30 10:01:26;;;;;;;0.43;0.00;;;18.20;49.80;;;;;;5056589;28;20411;-73
2022/05/30 10:03:56;;;;;;;1.63;0.25;;;18.10;50.00;;;;;;5050307;28;20059;-72
2022/05/30 10:06:25;;;;;;;1.58;0.10;;;18.10;50.10;;;;;;5069399;28;20566;-74
2022/05/30 10:09:12;;;;;;;2.45;0.10;;;18.10;50.20;;;;;;5055038;28;20038;-74
2022/05/30 10:11:38;;;;;;;1.42;0.10;;;18.10;50.10;;;;;;5055651;28;20045;-74
2022/05/30 10:14:25;;;;;;;1.70;0.10;;;18.10;50.20;;;;;;5049344;28;20516;-73
2022/05/30 10:16:56;;;;;;;1.90;0.00;;;18.00;50.00;;;;;;5053704;28;20048;-72
2022/05/30 10:19:26;;;;;;;2.72;0.10;;;18.00;50.20;;;;;;5052241;28;20880;-72
2022/05/30 10:34:25;;;;;;;0.82;0.10;;;17.90;50.30;;;;;;5074644;28;20389;-70
2022/05/30 10:47:54;;;;;;;0.85;0.10;;;18.00;50.40;;;;;;5068834;28;20179;-71
2022/05/30 10:50:42;;;;;;;1.25;0.10;;;18.00;50.30;;;;;;5054189;28;20137;-71
2022/05/30 10:53:30;;;;;;;0.45;0.10;;;18.00;50.20;;;;;;5056318;28;20082;-66
2022/05/30 10:56:01;;;;;;;0.40;0.10;;;18.00;50.10;;;;;;5051036;28;20041;-70
2022/05/30 10:58:35;;;;;;;1.77;0.20;;;18.00;50.20;;;;;;5049978;28;20048;-70
2022/05/30 11:01:12;;;;;;;0.47;0.03;;;18.00;50.20;;;;;;5053374;28;20158;-71
2022/05/30 11:03:45;;;;;;;1.45;0.05;;;18.00;50.20;;;;;;5049529;28;20049;-71
2022/05/30 11:09:04;;;;;;;0.68;0.00;;;17.90;50.30;;;;;;5051652;28;20506;-68
2022/05/30 11:11:46;;;;;;;1.35;0.13;;;17.90;50.30;;;;;;5050541;28;20132;-70
2022/05/30 11:22:47;;;;;;;0.35;0.00;;;18.00;50.50;;;;;;5130700;27;1161374;-70
2022/05/30 11:25:16;;;;;;;1.65;0.10;;;18.00;50.20;;;;;;5157339;27;20053;-71
2022/05/30 11:28:07;;;;;;;1.08;0.00;;;18.10;50.20;;;;;;5151488;27;20438;-70
2022/05/30 11:44:47;;;;;;;0.38;0.10;;;18.40;49.30;;;;;;5089577;27;20424;-71
2022/05/30 11:58:24;;;;;;;0.55;0.05;;;18.40;49.10;;;;;;5065223;28;20467;-72
2022/05/30 12:00:52;;;;;;;1.35;0.10;;;18.40;49.20;;;;;;5052433;28;20668;-71
2022/05/30 12:03:58;;;;;;;0.65;0.00;;;18.40;49.30;;;;;;5072681;28;20040;-72
2022/05/30 12:06:54;;;;;;;1.48;0.00;;;18.40;49.30;;;;;;5068806;28;20119;-71
2022/05/30 12:09:49;;;;;;;1.42;0.22;;;18.30;49.40;;;;;;5067121;28;20040;-72
2022/05/30 12:51:40;;;;;;;3.50;0.10;;;18.70;49.00;;;;;;5109872;27;20468;-71
2022/05/30 12:59:32;;;;;;;6.20;0.35;;;18.90;48.70;;;;;;5105338;27;1153565;-72
2022/05/30 13:01:58;;;;;;;2.75;0.10;;;18.90;48.40;;;;;;5082195;28;20084;-70
2022/05/30 13:04:29;;;;;;;5.03;0.52;;;18.90;48.30;;;;;;5086957;28;20758;-72
2022/05/30 13:09:43;;;;;;;3.25;0.73;;;19.00;48.40;;;;;;5065541;27;20997;-70
2022/05/30 13:17:51;;;;;;;2.70;0.10;;;19.10;49.20;;;;;;5118407;27;1162069;-71
2022/05/30 13:23:06;;;;;;;2.75;0.30;;;19.10;49.40;;;;;;5086413;27;20443;-71
2022/05/30 13:25:51;;;;;;;1.33;0.10;;;19.10;49.50;;;;;;5081197;28;20052;-72
2022/05/30 13:28:35;;;;;;;1.83;0.10;;;19.10;49.60;;;;;;5079524;28;20488;-72
2022/05/30 13:31:06;;;;;;;3.50;0.10;;;19.10;49.80;;;;;;5081880;28;20780;-72
2022/05/30 13:33:38;;;;;;;2.13;0.10;;;19.10;48.90;;;;;;5083800;28;20533;-72
2022/05/30 13:36:06;;;;;;;3.85;0.10;;;19.10;48.20;;;;;;5083800;28;20037;-72
2022/05/30 13:38:53;;;;;;;1.05;0.10;;;19.10;48.00;;;;;;5083109;28;20115;-73
2022/05/30 13:44:01;;;;;;;1.45;0.20;;;19.00;47.70;;;;;;5124000;27;20920;-72
2022/05/30 13:46:33;;;;;;;0.98;0.00;;;19.00;48.00;;;;;;5111348;27;20039;-72
2022/05/30 13:49:01;;;;;;;0.47;0.03;;;19.00;48.00;;;;;;5109582;28;20039;-72
2022/05/30 13:51:38;;;;;;;2.22;0.10;;;19.00;48.00;;;;;;5115544;28;20036;-72
2022/05/30 13:54:07;;;;;;;1.42;0.08;;;19.00;47.90;;;;;;5110566;28;20040;-71
2022/05/30 13:56:36;;;;;;;1.63;0.08;;;19.00;48.00;;;;;;5111085;28;20039;-70
2022/05/30 13:59:06;;;;;;;2.03;0.10;;;19.00;48.00;;;;;;5108293;28;20079;-70
2022/05/30 14:01:35;;;;;;;2.65;0.10;;;19.00;48.20;;;;;;5116797;27;20055;-68
2022/05/30 14:04:06;;;;;;;4.13;0.30;;;19.00;48.30;;;;;;5111124;28;20043;-68
2022/05/30 14:06:39;;;;;;;5.25;0.10;;;19.00;48.60;;;;;;5106950;28;20036;-68
2022/05/30 14:09:08;;;;;;;4.10;0.20;;;19.00;49.00;;;;;;5110947;28;20059;-69
2022/05/30 14:11:37;;;;;;;3.55;0.10;;;19.00;49.20;;;;;;5113316;28;20486;-69
2022/05/30 14:14:04;;;;;;;8.07;0.38;;;19.00;49.20;;;;;;5111032;28;20659;-72
2022/05/30 14:19:22;;;;;;;1.85;0.05;;;19.00;49.30;;;;;;5125797;27;20407;-69
2022/05/30 14:21:54;;;;;;;8.13;0.30;;;19.00;49.50;;;;;;5114934;28;20032;-66
2022/05/30 14:24:30;;;;;;;3.45;0.10;;;19.00;49.60;;;;;;5121330;27;20089;-67
2022/05/30 14:26:56;;;;;;;2.50;0.22;;;19.00;49.30;;;;;;5114169;27;20039;-68
2022/05/30 14:29:30;;;;;;;4.90;0.10;;;19.00;49.10;;;;;;5104548;28;20048;-67
2022/05/30 14:34:42;;;;;;;1.48;0.10;;;19.00;49.10;;;;;;5143362;27;1160500;-71
2022/05/30 14:37:28;;;;;;;1.77;0.20;;;18.90;48.80;;;;;;5150728;27;20094;-71
2022/05/30 14:39:59;;;;;;;1.63;0.00;;;18.90;48.80;;;;;;5149804;27;20053;-71
2022/05/30 14:42:31;;;;;;;1.75;0.10;;;18.90;48.90;;;;;;5169551;27;20654;-71
2022/05/30 14:45:06;;;;;;;3.25;0.47;;;18.90;48.90;;;;;;5151060;27;20521;-72
2022/05/30 14:47:34;;;;;;;1.00;0.17;;;18.90;48.90;;;;;;5151130;27;20070;-71
2022/05/30 14:52:52;;;;;;;1.35;0.10;;;18.90;49.00;;;;;;5128620;27;20419;-71
2022/05/30 14:55:41;;;;;;;2.45;0.10;;;18.90;48.90;;;;;;5099178;28;20048;-71
2022/05/30 14:58:16;;;;;;;0.75;0.05;;;18.90;48.90;;;;;;5104107;28;20045;-70
2022/05/30 15:01:00;;;;;;;1.05;0.05;;;18.90;48.90;;;;;;5087684;28;20379;-71
2022/05/30 15:06:22;;;;;;;0.32;0.03;;;18.90;48.80;;;;;;5090490;28;20059;-71
2022/05/30 15:08:53;;;;;;;1.55;0.10;;;18.90;48.80;;;;;;5107066;28;20494;-70
2022/05/30 15:11:24;;;;;;;2.40;0.10;;;18.90;48.80;;;;;;5108614;28;20035;-70
2022/05/30 15:13:51;;;;;;;;;;;18.90;48.80;;;;;;5107799;28;20065;-71
2022/05/30 15:16:18;;;;;;;0.55;0.03;;;18.80;48.80;;;;;;5108631;28;19920;-71
2022/05/30 15:18:44;;;;;;;0.40;0.00;;;18.80;48.90;;;;;;5108736;28;20418;-72
2022/05/30 15:24:10;;;;;;;0.73;0.10;;;18.80;48.90;;;;;;5129429;27;20361;-71
2022/05/30 15:26:36;;;;;;;0.32;0.00;;;18.70;48.80;;;;;;5128059;28;20040;-70
2022/05/30 15:29:02;;;;;;;0.52;0.00;;;18.70;48.80;;;;;;5127993;28;20096;-70
2022/05/30 15:31:30;;;;;;;1.63;0.05;;;18.70;49.60;;;;;;5129509;28;20122;-71
2022/05/30 15:33:55;;;;;;;0.57;0.00;;;18.70;48.90;;;;;;5127416;28;20051;-70
2022/05/30 15:36:23;;;;;;;0.20;0.00;;;18.70;48.90;;;;;;5127468;27;20047;-70
2022/05/30 15:38:49;;;;;;;0.60;0.10;;;18.60;48.90;;;;;;5128462;28;20051;-70
2022/05/30 15:41:16;;;;;;;0.95;0.00;;;18.60;49.00;;;;;;5127780;28;20035;-70
2022/05/30 15:43:42;;;;;;;1.70;0.20;;;18.60;49.00;;;;;;5128178;28;20075;-70
2022/05/30 15:46:10;;;;;;;0.80;0.10;;;18.60;49.10;;;;;;5129446;27;20039;-65
2022/05/30 15:48:36;;;;;;;0.43;0.00;;;18.60;49.10;;;;;;5128421;28;20063;-70
2022/05/30 15:51:04;;;;;;;1.00;0.20;;;18.60;49.20;;;;;;5128579;28;20036;-70
2022/05/30 15:59:06;;;;;;;1.65;0.00;;;18.50;49.10;;;;;;5128138;27;20074;-74